createdAt,value
2017-10-14T00:01:19.923Z,100393.39
2017-10-14T00:03:51.916Z,100375.91
2017-10-14T00:06:23.930Z,100376.48
2017-10-14T00:09:06.507Z,100373.80
2017-10-14T00:11:37.473Z,100407.56
2017-10-14T00:14:12.879Z,100386.42
2017-10-14T00:16:48.577Z,100408.62
2017-10-14T00:19:21.963Z,100411.59
2017-10-14T00:21:52.161Z,100407.19
2017-10-14T00:24:22.685Z,100368.22
2017-10-14T00:26:55.672Z,100404.17
2017-10-14T00:29:30.975Z,100406.10
2017-10-14T00:32:03.747Z,100408.12
2017-10-14T00:34:39.968Z,100404.78
2017-10-14T00:37:14.909Z,100406.02
2017-10-14T00:39:48.185Z,100365.64
2017-10-14T00:48:12.371Z,100378.78
2017-10-14T00:53:36.067Z,100407.02
2017-10-14T00:56:08.152Z,100413.36
2017-10-14T00:58:47.163Z,100408.26
2017-10-14T01:01:22.880Z,100407.72
2017-10-14T01:03:54.670Z,100412.73
2017-10-14T01:06:25.697Z,100415.83
2017-10-14T01:09:02.928Z,100411.69
2017-10-14T01:11:39.444Z,100418.70
2017-10-14T01:14:10.640Z,100392.01
2017-10-14T01:16:45.300Z,100401.41
2017-10-14T01:19:16.721Z,100372.41
2017-10-14T01:21:55.099Z,100329.09
2017-10-14T01:24:26.464Z,100410.98
2017-10-14T01:26:58.816Z,100462.35
2017-10-14T01:29:32.831Z,100333.13
2017-10-14T01:32:04.530Z,100421.82
2017-10-14T01:34:34.817Z,100420.92
2017-10-14T01:37:05.310Z,100422.41
2017-10-14T01:39:37.184Z,100424.04
2017-10-14T01:42:08.348Z,100422.95
2017-10-14T01:46:32.784Z,100377.44
2017-10-14T01:49:03.669Z,100419.52
2017-10-14T01:51:39.882Z,100390.55
2017-10-14T01:54:12.153Z,100461.15
2017-10-14T01:56:48.983Z,100415.81
2017-10-14T01:59:20.038Z,100416.23
2017-10-14T02:01:57.067Z,100396.49
2017-10-14T02:04:27.739Z,100410.78
2017-10-14T02:07:05.158Z,100394.91
2017-10-14T02:09:39.053Z,100364.05
2017-10-14T02:12:12.077Z,100404.30
2017-10-14T02:14:45.979Z,100398.58
2017-10-14T02:17:20.593Z,100356.32
2017-10-14T02:19:56.019Z,100346.75
2017-10-14T02:22:27.079Z,100416.02
2017-10-14T02:25:00.829Z,100397.23
2017-10-14T02:27:32.629Z,100428.49
2017-10-14T02:30:24.087Z,100355.92
2017-10-14T02:32:54.395Z,100375.72
2017-10-14T02:35:25.489Z,100396.81
2017-10-14T02:37:57.442Z,100384.69
2017-10-14T02:40:28.312Z,100334.65
2017-10-14T02:42:59.594Z,100401.20
2017-10-14T02:45:34.383Z,100399.86
2017-10-14T02:48:05.530Z,100399.86
2017-10-14T02:50:35.268Z,100391.68
2017-10-14T02:53:06.438Z,100391.05
2017-10-14T02:55:37.378Z,100385.41
2017-10-14T02:58:07.135Z,100395.08
2017-10-14T03:03:17.765Z,100366.96
2017-10-14T03:05:48.324Z,100319.36
2017-10-14T03:08:18.456Z,100390.19
2017-10-14T03:10:51.224Z,100316.80
2017-10-14T03:13:21.535Z,100379.85
2017-10-14T03:15:51.670Z,100364.82
2017-10-14T03:18:23.897Z,100331.26
2017-10-14T03:20:55.362Z,100335.17
2017-10-14T03:23:25.973Z,100382.67
2017-10-14T03:25:58.857Z,100385.63
2017-10-14T03:28:31.247Z,100384.43
2017-10-14T03:31:01.960Z,100384.43
2017-10-14T03:33:32.899Z,100376.24
2017-10-14T03:36:03.238Z,100379.47
2017-10-14T03:38:38.286Z,100374.09
2017-10-14T03:41:08.631Z,100381.07
2017-10-14T03:43:39.914Z,100386.03
2017-10-14T03:46:11.578Z,100378.03
2017-10-14T03:48:46.338Z,100391.80
2017-10-14T03:51:16.968Z,100385.90
2017-10-14T03:53:49.120Z,100383.89
2017-10-14T03:56:19.525Z,100393.55
2017-10-14T03:58:51.191Z,100388.58
2017-10-14T04:01:23.199Z,100392.89
2017-10-14T04:03:53.829Z,100388.86
2017-10-14T04:06:24.499Z,100395.17
2017-10-14T04:08:54.222Z,100398.56
2017-10-14T04:11:24.206Z,100426.05
2017-10-14T04:13:55.718Z,100397.59
2017-10-14T04:16:26.245Z,100375.05
2017-10-14T04:18:56.954Z,100391.72
2017-10-14T04:21:29.776Z,100396.69
2017-10-14T04:24:00.080Z,100399.37
2017-10-14T04:26:30.041Z,100397.09
2017-10-14T04:29:01.239Z,100402.33
2017-10-14T04:31:32.519Z,100379.90
2017-10-14T04:34:03.806Z,100395.50
2017-10-14T04:36:49.674Z,100317.27
2017-10-14T04:39:19.712Z,100360.16
2017-10-14T04:41:56.668Z,100396.56
2017-10-14T04:44:26.546Z,100337.13
2017-10-14T04:46:58.523Z,100397.29
2017-10-14T04:49:32.455Z,100306.31
2017-10-14T04:52:03.121Z,100406.80
2017-10-14T04:54:55.178Z,100346.80
2017-10-14T04:57:30.699Z,100396.07
2017-10-14T05:00:04.719Z,100389.91
2017-10-14T05:02:37.016Z,100400.55
2017-10-14T05:05:07.427Z,100390.94
2017-10-14T05:07:38.528Z,100395.63
2017-10-14T05:10:12.395Z,100425.69
2017-10-14T05:12:48.862Z,100391.08
2017-10-14T05:15:20.525Z,100254.16
2017-10-14T05:17:50.638Z,100386.28
2017-10-14T05:20:20.716Z,100347.73
2017-10-14T05:22:53.565Z,100369.88
2017-10-14T05:25:24.063Z,100386.67
2017-10-14T05:27:54.017Z,100386.95
2017-10-14T05:30:24.125Z,100386.16
2017-10-14T05:32:56.270Z,100386.83
2017-10-14T05:35:26.595Z,100395.16
2017-10-14T05:37:58.505Z,100390.73
2017-10-14T05:40:31.230Z,100387.77
2017-10-14T05:43:03.608Z,100347.11
2017-10-14T05:45:34.858Z,100389.78
2017-10-14T05:48:05.360Z,100386.69
2017-10-14T05:50:37.231Z,100397.02
2017-10-14T05:53:08.643Z,100377.94
2017-10-14T05:55:40.953Z,100395.01
2017-10-14T05:58:10.960Z,100395.09
2017-10-14T06:00:41.844Z,100393.48
2017-10-14T06:03:12.493Z,100376.58
2017-10-14T06:05:43.133Z,100351.35
2017-10-14T06:08:14.404Z,100392.00
2017-10-14T06:10:48.413Z,100393.45
2017-10-14T06:13:21.639Z,100394.67
2017-10-14T06:15:52.711Z,100400.26
2017-10-14T06:18:27.777Z,100422.52
2017-10-14T06:20:59.625Z,100381.69
2017-10-14T06:23:31.086Z,100341.28
2017-10-14T06:26:02.249Z,100405.11
2017-10-14T06:28:38.709Z,100408.31
2017-10-14T06:31:10.090Z,100343.52
2017-10-14T06:33:47.610Z,100418.52
2017-10-14T06:36:18.223Z,100424.02
2017-10-14T06:38:54.041Z,100443.61
2017-10-14T06:41:25.093Z,100431.80
2017-10-14T06:43:55.498Z,100425.35
2017-10-14T06:46:28.620Z,100391.52
2017-10-14T06:48:58.742Z,100441.80
2017-10-14T06:51:30.475Z,100437.77
2017-10-14T06:54:00.855Z,100444.09
2017-10-14T06:56:32.165Z,100440.06
2017-10-14T06:59:03.062Z,100491.75
2017-10-14T07:01:34.391Z,100439.66
2017-10-14T07:04:05.154Z,100415.34
2017-10-14T07:06:35.453Z,100440.58
2017-10-14T07:09:06.521Z,100436.92
2017-10-14T07:11:36.593Z,100442.87
2017-10-14T07:14:07.087Z,100419.38
2017-10-14T07:16:43.319Z,100304.89
2017-10-14T07:19:18.338Z,100422.72
2017-10-14T07:22:00.437Z,100447.65
2017-10-14T07:24:36.086Z,100446.71
2017-10-14T07:27:12.755Z,100450.60
2017-10-14T07:29:51.998Z,100358.00
2017-10-14T07:32:22.211Z,100449.78
2017-10-14T07:35:08.673Z,100414.55
2017-10-14T07:37:41.475Z,100448.67
2017-10-14T07:40:14.859Z,100468.56
2017-10-14T07:42:50.919Z,100451.74
2017-10-14T07:45:24.152Z,100454.43
2017-10-14T07:47:56.857Z,100403.81
2017-10-14T07:50:29.716Z,100319.62
2017-10-14T07:53:04.288Z,100435.58
2017-10-14T07:55:34.569Z,100439.06
2017-10-14T07:58:05.145Z,100458.88
2017-10-14T08:00:35.108Z,100454.84
2017-10-14T08:03:05.137Z,100454.97
2017-10-14T08:05:35.415Z,100458.98
2017-10-14T08:08:05.601Z,100450.48
2017-10-14T08:10:38.807Z,100435.43
2017-10-14T08:13:09.129Z,100453.39
2017-10-14T08:15:38.933Z,100501.19
2017-10-14T08:18:10.941Z,100455.19
2017-10-14T08:20:41.526Z,100458.50
2017-10-14T08:23:11.456Z,100460.88
2017-10-14T08:25:46.692Z,100425.23
2017-10-14T08:28:18.630Z,100462.77
2017-10-14T08:30:51.655Z,100415.78
2017-10-14T08:33:23.370Z,100474.52
2017-10-14T08:35:55.228Z,100459.94
2017-10-14T08:38:26.462Z,100439.81
2017-10-14T08:41:03.269Z,100439.91
2017-10-14T08:43:34.794Z,100464.75
2017-10-14T08:46:07.213Z,100470.77
2017-10-14T08:48:43.151Z,100465.45
2017-10-14T08:51:15.948Z,100430.17
2017-10-14T08:53:49.747Z,100460.58
2017-10-14T08:56:21.524Z,100447.68
2017-10-14T08:58:52.682Z,100470.59
2017-10-14T09:01:24.600Z,100478.29
2017-10-14T09:03:57.420Z,100481.98
2017-10-14T09:06:29.222Z,100475.64
2017-10-14T09:10:06.011Z,100472.09
2017-10-14T09:12:38.993Z,100453.80
2017-10-14T09:15:22.149Z,100466.09
2017-10-14T09:17:56.256Z,100468.22
2017-10-14T09:20:28.514Z,100452.61
2017-10-14T09:23:00.552Z,100473.66
2017-10-14T09:25:32.637Z,100475.75
2017-10-14T09:28:07.252Z,100451.83
2017-10-14T09:30:39.249Z,100419.08
2017-10-14T09:33:11.169Z,100471.98
2017-10-14T09:35:47.884Z,100477.70
2017-10-14T09:38:20.102Z,100473.50
2017-10-14T09:40:53.065Z,100475.70
2017-10-14T09:43:25.198Z,100480.94
2017-10-14T09:45:58.387Z,100472.81
2017-10-14T09:48:30.845Z,100470.23
2017-10-14T09:51:02.864Z,100424.75
2017-10-14T09:53:37.269Z,100466.80
2017-10-14T09:56:11.513Z,100447.48
2017-10-14T09:58:42.951Z,100471.61
2017-10-14T10:01:46.745Z,100425.78
2017-10-14T10:04:20.931Z,100466.70
2017-10-14T10:07:00.256Z,100475.62
2017-10-14T10:09:39.286Z,100477.78
2017-10-14T10:12:11.807Z,100470.94
2017-10-14T10:14:46.513Z,100465.30
2017-10-14T10:17:18.852Z,100470.94
2017-10-14T10:19:52.859Z,100361.72
2017-10-14T10:23:07.155Z,100525.01
2017-10-14T10:37:22.322Z,100401.07
2017-10-14T10:47:11.284Z,100352.58
2017-10-14T10:57:37.069Z,100427.34
2017-10-14T11:00:13.317Z,100424.16
2017-10-14T11:06:25.578Z,100371.25
2017-10-14T11:09:46.840Z,100413.72
2017-10-14T11:12:50.870Z,100398.76
2017-10-14T11:16:11.916Z,100442.23
2017-10-14T11:31:17.309Z,100414.74
2017-10-14T11:42:15.916Z,100472.74
2017-10-14T11:44:58.113Z,100414.08
2017-10-14T11:47:29.743Z,100405.45
2017-10-14T11:50:03.493Z,100353.80
2017-10-14T11:57:08.905Z,100401.52
2017-10-14T11:59:41.847Z,100403.66
2017-10-14T12:02:16.205Z,100401.05
2017-10-14T12:04:54.871Z,100376.91
2017-10-14T12:07:33.416Z,100380.36
2017-10-14T12:24:45.572Z,100393.73
2017-10-14T12:36:31.153Z,100400.92
2017-10-14T12:39:09.097Z,100402.44
2017-10-14T12:41:43.024Z,100375.99
2017-10-14T12:44:17.203Z,100395.27
2017-10-14T12:46:51.499Z,100400.71
2017-10-14T12:49:25.165Z,100394.69
2017-10-14T12:56:31.643Z,100327.56
2017-10-14T13:08:07.979Z,100390.70
2017-10-14T13:10:41.454Z,100379.30
2017-10-14T13:13:23.727Z,100377.41
2017-10-14T13:47:13.365Z,100363.60
2017-10-14T13:49:49.117Z,100369.30
2017-10-14T13:56:53.620Z,100364.80
2017-10-14T13:59:26.418Z,100363.16
2017-10-14T14:23:43.419Z,100362.47
2017-10-14T15:01:58.026Z,100373.61
2017-10-14T15:04:32.294Z,100149.05
2017-10-14T15:07:18.602Z,100372.56
2017-10-14T15:10:05.970Z,100358.30
2017-10-14T15:13:11.739Z,100379.55
2017-10-14T15:51:07.050Z,100363.20
2017-10-14T15:53:40.290Z,100361.10
2017-10-14T15:56:16.737Z,100366.43
2017-10-14T15:58:52.952Z,100366.31
2017-10-14T16:01:27.089Z,100369.06
2017-10-14T16:04:00.999Z,100373.23
2017-10-14T16:09:47.396Z,100279.44
2017-10-14T16:12:20.431Z,100357.31
2017-10-14T16:14:52.930Z,100129.63
2017-10-14T16:17:24.296Z,100375.84
2017-10-14T16:19:56.871Z,100375.05
2017-10-14T16:22:28.005Z,100352.55
2017-10-14T16:25:00.969Z,100393.97
2017-10-14T16:27:33.318Z,100357.05
2017-10-14T16:30:09.950Z,100378.56
2017-10-14T16:32:43.337Z,100352.73
2017-10-14T16:35:18.272Z,100376.39
2017-10-14T16:37:51.688Z,100381.50
2017-10-14T16:40:24.569Z,100393.95
2017-10-14T16:42:57.607Z,100389.37
2017-10-14T16:45:31.017Z,100371.42
2017-10-14T16:48:03.772Z,100395.78
2017-10-14T16:50:38.003Z,100393.33
2017-10-14T16:53:11.144Z,100395.55
2017-10-14T16:55:48.937Z,100393.52
2017-10-14T16:58:23.987Z,100333.84
2017-10-14T17:00:54.999Z,100361.16
2017-10-14T17:03:28.758Z,100378.30
2017-10-14T17:06:00.637Z,100444.61
2017-10-14T17:08:31.916Z,100387.28
2017-10-14T17:11:04.688Z,100406.67
2017-10-14T17:13:37.291Z,100404.31
2017-10-14T17:16:09.676Z,100409.87
2017-10-14T17:18:41.901Z,100408.33
2017-10-14T17:21:14.472Z,100404.47
2017-10-14T17:23:48.625Z,100387.28
2017-10-14T17:26:22.131Z,100398.99
2017-10-14T17:28:54.531Z,100384.35
2017-10-14T17:31:26.556Z,100423.03
2017-10-14T17:33:59.042Z,100430.85
2017-10-14T17:36:34.039Z,100434.91
2017-10-14T17:39:11.327Z,100443.73
2017-10-14T17:41:47.688Z,100441.61
2017-10-14T17:44:20.991Z,100444.10
2017-10-14T17:46:58.215Z,100451.91
2017-10-14T17:49:33.598Z,100449.83
2017-10-14T17:52:08.279Z,100411.52
2017-10-14T17:54:50.999Z,100453.05
2017-10-14T17:57:29.034Z,100459.29
2017-10-14T18:00:07.764Z,100456.80
2017-10-14T18:02:43.045Z,100457.94
2017-10-14T18:05:19.338Z,100439.55
2017-10-14T18:07:55.965Z,100395.08
2017-10-14T18:10:30.681Z,100458.98
2017-10-14T18:13:05.837Z,100467.34
2017-10-14T18:41:43.985Z,100484.89
2017-10-14T18:44:18.100Z,100382.61
2017-10-14T18:46:51.214Z,100466.23
2017-10-14T18:49:28.113Z,100485.17
2017-10-14T19:01:33.113Z,100494.37
2017-10-14T19:04:10.379Z,100470.97
2017-10-14T19:06:43.813Z,100491.02
2017-10-14T19:09:17.090Z,100491.58
2017-10-14T19:11:55.296Z,100482.77
2017-10-14T19:14:32.639Z,100484.41
2017-10-14T19:17:10.123Z,100473.71
2017-10-14T19:19:43.608Z,100476.27
2017-10-14T19:22:19.086Z,100473.87
2017-10-14T19:24:55.600Z,100454.59
2017-10-14T19:27:30.621Z,100470.97
2017-10-14T19:30:11.958Z,100469.10
2017-10-14T19:32:50.072Z,100471.39
2017-10-14T19:35:56.640Z,100366.84
2017-10-14T19:38:30.030Z,100473.41
2017-10-14T19:41:05.858Z,100466.60
2017-10-14T19:43:40.070Z,100467.83
2017-10-14T19:46:12.753Z,100468.10
2017-10-14T19:48:48.984Z,100466.50
2017-10-14T19:51:23.107Z,100470.72
2017-10-14T19:53:56.774Z,100459.30
2017-10-14T19:56:30.429Z,100421.74
2017-10-14T19:59:02.438Z,100474.63
2017-10-14T20:01:41.556Z,100463.77
2017-10-14T20:04:15.810Z,100452.27
2017-10-14T20:06:58.954Z,100456.84
2017-10-14T20:09:37.817Z,100456.44
2017-10-14T20:12:18.822Z,100431.92
2017-10-14T20:15:05.467Z,100477.94
2017-10-14T20:17:52.640Z,100482.25
2017-10-14T20:20:28.092Z,100473.25
2017-10-14T20:23:00.334Z,100474.85
2017-10-14T20:25:33.909Z,100434.48
2017-10-14T20:28:08.684Z,100478.08
2017-10-14T20:30:43.304Z,100479.16
2017-10-14T20:33:18.523Z,100475.58
2017-10-14T20:36:23.496Z,100499.15
2017-10-14T20:46:30.509Z,100412.33
2017-10-14T21:37:55.157Z,100475.85
2017-10-14T21:45:02.043Z,100498.98
2017-10-14T21:52:07.719Z,100506.22
2017-10-14T21:54:39.547Z,100508.59
2017-10-14T21:57:19.007Z,100409.90
2017-10-14T21:59:54.621Z,100480.64
2017-10-14T22:02:32.784Z,100499.55
2017-10-14T22:05:28.708Z,100501.59
2017-10-14T22:12:39.764Z,100504.65
2017-10-14T22:15:14.196Z,100498.62
2017-10-14T22:17:50.601Z,100500.63
2017-10-14T22:20:23.858Z,100495.66
2017-10-14T22:22:56.925Z,100491.77
2017-10-14T22:25:33.259Z,100488.83
2017-10-14T22:28:06.705Z,100470.55
2017-10-14T22:30:39.939Z,100466.96
2017-10-14T22:33:12.568Z,100490.30
2017-10-14T22:35:52.498Z,100489.94
2017-10-14T22:38:25.573Z,100490.88
2017-10-14T22:45:29.963Z,100489.73
2017-10-14T22:52:35.231Z,100489.59
2017-10-14T22:55:07.726Z,100487.84
2017-10-14T22:57:39.796Z,100464.64
